Main page
METAR-TAF:

METAR-TAF

Airports :

Chiang Rai International Airport

Chiang Rai, Thailand

latitude: 19-57-08N, longitude: 099-52-59E, elevation: 390 m

Current weather observation

The report was made 1 hour and 0 minutes ago, at 09:00 UTC
Wind 4 kt from the East
Temperature 31°C
Humidity 40%
Pressure 1012 hPa
Visibility 10 km or more
no clouds below 1500 m and no cumulonimbus

METAR: VTCT 240900Z 09004KT CAVOK 31/16 Q1012 NOSIG

Time: 17:00 (10:00 UTC)

Forecast

The report was made 5 hours and 0 minutes ago, at 05:00 UTC
Forecast valid from 24 at 06 UTC to 25 at 12 UTC
Wind 5 kt from the East
Visibility 10 km or more
Few clouds at a height of 3500 ft

TAF: VTCT 240500Z 2406/2512 08005KT 9999 FEW035

Weather observations and forecasts of more than 4000 airports (METAR and TAF reports).

The available stations are represented by yellow and red dots on the map.

Hover mouse over dot to see the name of the station.

Then click to see weather observations and forecasts.

To change the map : click on the green buttons with a black cross to zoom in, on the green button with a dash to zoom out, or on the green arrows for adjacent maps.


METAR-TAF: